sensor_id;sensor_type;location;lat;lon;timestamp;pressure;altitude;pressure_sealevel;temperature;humidity
9969;BME280;5025;48.890;9.278;2024-01-30T00:00:50;100149.91;;;5.01;65.50
9969;BME280;5025;48.890;9.278;2024-01-30T00:03:15;100151.75;;;5.00;65.38
9969;BME280;5025;48.890;9.278;2024-01-30T00:05:41;100151.75;;;5.00;65.51
9969;BME280;5025;48.890;9.278;2024-01-30T00:08:06;100150.06;;;4.99;65.45
9969;BME280;5025;48.890;9.278;2024-01-30T00:10:31;100146.72;;;4.97;65.51
9969;BME280;5025;48.890;9.278;2024-01-30T00:12:57;100152.25;;;4.96;65.49
9969;BME280;5025;48.890;9.278;2024-01-30T00:15:22;100149.03;;;4.92;65.60
9969;BME280;5025;48.890;9.278;2024-01-30T00:17:47;100151.50;;;4.85;65.67
9969;BME280;5025;48.890;9.278;2024-01-30T00:20:13;100146.09;;;4.77;65.65
9969;BME280;5025;48.890;9.278;2024-01-30T00:22:38;100143.75;;;4.74;65.63
9969;BME280;5025;48.890;9.278;2024-01-30T00:25:03;100151.78;;;4.74;65.80
9969;BME280;5025;48.890;9.278;2024-01-30T00:27:29;100148.53;;;4.71;65.78
9969;BME280;5025;48.890;9.278;2024-01-30T00:29:54;100151.84;;;4.64;65.88
9969;BME280;5025;48.890;9.278;2024-01-30T00:32:20;100154.16;;;4.59;65.93
9969;BME280;5025;48.890;9.278;2024-01-30T00:34:45;100153.97;;;4.53;66.03
9969;BME280;5025;48.890;9.278;2024-01-30T00:37:10;100158.25;;;4.45;66.11
9969;BME280;5025;48.890;9.278;2024-01-30T00:39:35;100154.34;;;4.40;66.26
9969;BME280;5025;48.890;9.278;2024-01-30T00:42:01;100152.69;;;4.39;66.42
9969;BME280;5025;48.890;9.278;2024-01-30T00:44:26;100155.50;;;4.37;66.48
9969;BME280;5025;48.890;9.278;2024-01-30T00:46:51;100158.19;;;4.37;66.57
9969;BME280;5025;48.890;9.278;2024-01-30T00:49:17;100162.50;;;4.38;66.69
9969;BME280;5025;48.890;9.278;2024-01-30T00:51:42;100160.84;;;4.37;66.82
9969;BME280;5025;48.890;9.278;2024-01-30T00:54:07;100169.88;;;4.36;66.69
9969;BME280;5025;48.890;9.278;2024-01-30T00:56:33;100167.34;;;4.35;66.77
9969;BME280;5025;48.890;9.278;2024-01-30T00:58:58;100170.84;;;4.35;66.75
9969;BME280;5025;48.890;9.278;2024-01-30T01:01:23;100167.34;;;4.35;67.00
9969;BME280;5025;48.890;9.278;2024-01-30T01:03:48;100168.16;;;4.35;66.81
9969;BME280;5025;48.890;9.278;2024-01-30T01:06:14;100166.66;;;4.33;66.98
9969;BME280;5025;48.890;9.278;2024-01-30T01:08:39;100160.47;;;4.32;67.07
9969;BME280;5025;48.890;9.278;2024-01-30T01:11:05;100165.81;;;4.32;67.28
9969;BME280;5025;48.890;9.278;2024-01-30T01:13:30;100163.13;;;4.32;67.17
9969;BME280;5025;48.890;9.278;2024-01-30T01:15:55;100168.47;;;4.32;67.28
9969;BME280;5025;48.890;9.278;2024-01-30T01:18:20;100157.78;;;4.32;67.35
9969;BME280;5025;48.890;9.278;2024-01-30T01:20:46;100164.00;;;4.33;67.56
9969;BME280;5025;48.890;9.278;2024-01-30T01:23:11;100159.78;;;4.30;67.59
9969;BME280;5025;48.890;9.278;2024-01-30T01:25:36;100161.47;;;4.31;67.60
9969;BME280;5025;48.890;9.278;2024-01-30T01:28:01;100160.47;;;4.32;67.99
9969;BME280;5025;48.890;9.278;2024-01-30T01:30:27;100156.78;;;4.33;67.77
9969;BME280;5025;48.890;9.278;2024-01-30T01:32:54;100164.81;;;4.33;67.72
9969;BME280;5025;48.890;9.278;2024-01-30T01:35:25;100160.84;;;4.37;67.71
9969;BME280;5025;48.890;9.278;2024-01-30T01:37:54;100161.69;;;4.38;67.89
9969;BME280;5025;48.890;9.278;2024-01-30T01:40:24;100160.84;;;4.37;67.73
9969;BME280;5025;48.890;9.278;2024-01-30T01:42:51;100157.31;;;4.37;68.03
9969;BME280;5025;48.890;9.278;2024-01-30T01:45:20;100159.00;;;4.38;67.87
9969;BME280;5025;48.890;9.278;2024-01-30T01:47:48;100158.34;;;4.36;68.47
9969;BME280;5025;48.890;9.278;2024-01-30T01:50:16;100158.34;;;4.36;68.34
9969;BME280;5025;48.890;9.278;2024-01-30T01:52:44;100152.13;;;4.35;68.22
9969;BME280;5025;48.890;9.278;2024-01-30T01:55:12;100159.47;;;4.33;68.14
9969;BME280;5025;48.890;9.278;2024-01-30T01:57:38;100160.47;;;4.32;68.20
9969;BME280;5025;48.890;9.278;2024-01-30T02:00:03;100161.47;;;4.31;68.23
9969;BME280;5025;48.890;9.278;2024-01-30T02:02:35;100160.75;;;4.29;68.35
9969;BME280;5025;48.890;9.278;2024-01-30T02:05:01;100161.22;;;4.24;68.09
9969;BME280;5025;48.890;9.278;2024-01-30T02:07:27;100160.84;;;4.19;68.39
9969;BME280;5025;48.890;9.278;2024-01-30T02:09:53;100163.00;;;4.16;68.31
9969;BME280;5025;48.890;9.278;2024-01-30T02:12:18;100162.28;;;4.13;68.50
9969;BME280;5025;48.890;9.278;2024-01-30T02:14:52;100164.28;;;4.11;68.64
9969;BME280;5025;48.890;9.278;2024-01-30T02:17:19;100162.59;;;4.10;68.65
9969;BME280;5025;48.890;9.278;2024-01-30T02:19:45;100167.94;;;4.10;69.11
9969;BME280;5025;48.890;9.278;2024-01-30T02:22:10;100162.59;;;4.10;68.57
9969;BME280;5025;48.890;9.278;2024-01-30T02:24:35;100168.97;;;4.09;68.80
9969;BME280;5025;48.890;9.278;2024-01-30T02:27:01;100168.25;;;4.07;68.75
9969;BME280;5025;48.890;9.278;2024-01-30T02:29:26;100166.59;;;4.06;68.74
9969;BME280;5025;48.890;9.278;2024-01-30T02:31:51;100166.03;;;4.03;68.76
9969;BME280;5025;48.890;9.278;2024-01-30T02:34:18;100162.84;;;3.99;68.84
9969;BME280;5025;48.890;9.278;2024-01-30T02:36:44;100169.16;;;3.98;69.04
9969;BME280;5025;48.890;9.278;2024-01-30T02:39:09;100161.47;;;3.95;69.08
9969;BME280;5025;48.890;9.278;2024-01-30T02:41:35;100154.59;;;3.92;69.01
9969;BME280;5025;48.890;9.278;2024-01-30T02:44:01;100155.72;;;3.90;69.12
9969;BME280;5025;48.890;9.278;2024-01-30T02:46:27;100160.25;;;3.89;69.14
9969;BME280;5025;48.890;9.278;2024-01-30T02:48:52;100162.38;;;3.86;69.33
9969;BME280;5025;48.890;9.278;2024-01-30T02:51:17;100166.03;;;3.85;69.30
9969;BME280;5025;48.890;9.278;2024-01-30T02:53:43;100164.34;;;3.84;69.21
9969;BME280;5025;48.890;9.278;2024-01-30T02:56:08;100161.53;;;3.85;69.37
9969;BME280;5025;48.890;9.278;2024-01-30T02:58:35;100161.84;;;3.82;69.37
9969;BME280;5025;48.890;9.278;2024-01-30T03:01:01;100165.66;;;3.80;69.46
9969;BME280;5025;48.890;9.278;2024-01-30T03:03:27;100160.94;;;3.73;69.42
9969;BME280;5025;48.890;9.278;2024-01-30T03:05:52;100159.09;;;3.74;69.63
9969;BME280;5025;48.890;9.278;2024-01-30T03:08:17;100154.56;;;3.74;69.69
9969;BME280;5025;48.890;9.278;2024-01-30T03:10:42;100155.72;;;3.72;69.68
9969;BME280;5025;48.890;9.278;2024-01-30T03:13:07;100157.09;;;3.76;69.99
9969;BME280;5025;48.890;9.278;2024-01-30T03:15:33;100157.09;;;3.76;69.81
9969;BME280;5025;48.890;9.278;2024-01-30T03:17:58;100156.78;;;3.79;69.75
9969;BME280;5025;48.890;9.278;2024-01-30T03:20:23;100164.13;;;3.77;69.88
9969;BME280;5025;48.890;9.278;2024-01-30T03:22:49;100158.94;;;3.75;69.93
9969;BME280;5025;48.890;9.278;2024-01-30T03:25:14;100159.91;;;3.74;70.01
9969;BME280;5025;48.890;9.278;2024-01-30T03:27:39;100161.44;;;3.77;69.81
9969;BME280;5025;48.890;9.278;2024-01-30T03:30:07;100161.59;;;3.75;70.03
9969;BME280;5025;48.890;9.278;2024-01-30T03:32:33;100161.75;;;3.74;70.20
9969;BME280;5025;48.890;9.278;2024-01-30T03:34:58;100159.22;;;3.72;70.35
9969;BME280;5025;48.890;9.278;2024-01-30T03:37:24;100160.06;;;3.73;70.25
9969;BME280;5025;48.890;9.278;2024-01-30T03:39:49;100165.56;;;3.71;70.34
9969;BME280;5025;48.890;9.278;2024-01-30T03:42:14;100163.03;;;3.70;70.50
9969;BME280;5025;48.890;9.278;2024-01-30T03:44:40;100159.38;;;3.71;70.42
9969;BME280;5025;48.890;9.278;2024-01-30T03:47:05;100165.56;;;3.71;70.30
9969;BME280;5025;48.890;9.278;2024-01-30T03:49:30;100164.03;;;3.69;70.52
9969;BME280;5025;48.890;9.278;2024-01-30T03:51:55;100159.53;;;3.69;70.46
9969;BME280;5025;48.890;9.278;2024-01-30T03:54:21;100166.88;;;3.67;70.18
9969;BME280;5025;48.890;9.278;2024-01-30T03:56:46;100163.47;;;3.65;70.67
9969;BME280;5025;48.890;9.278;2024-01-30T03:59:12;100162.66;;;3.65;70.52
9969;BME280;5025;48.890;9.278;2024-01-30T04:01:37;100162.94;;;3.62;70.60
9969;BME280;5025;48.890;9.278;2024-01-30T04:04:02;100166.44;;;3.62;70.67
9969;BME280;5025;48.890;9.278;2024-01-30T04:06:27;100165.09;;;3.58;70.73
9969;BME280;5025;48.890;9.278;2024-01-30T04:08:53;100164.38;;;3.56;70.79
9969;BME280;5025;48.890;9.278;2024-01-30T04:11:18;100167.34;;;3.53;70.68
9969;BME280;5025;48.890;9.278;2024-01-30T04:13:45;100164.97;;;3.50;70.81
9969;BME280;5025;48.890;9.278;2024-01-30T04:16:19;100166.28;;;3.46;70.74
9969;BME280;5025;48.890;9.278;2024-01-30T04:18:45;100173.59;;;3.44;70.73
9969;BME280;5025;48.890;9.278;2024-01-30T04:21:10;100172.22;;;3.39;70.83
9969;BME280;5025;48.890;9.278;2024-01-30T04:23:35;100168.97;;;3.36;71.03
9969;BME280;5025;48.890;9.278;2024-01-30T04:26:00;100167.47;;;3.33;71.15
9969;BME280;5025;48.890;9.278;2024-01-30T04:28:25;100163.78;;;3.34;70.90
9969;BME280;5025;48.890;9.278;2024-01-30T04:30:51;100160.28;;;3.34;70.96
9969;BME280;5025;48.890;9.278;2024-01-30T04:33:16;100150.72;;;3.31;71.08
9969;BME280;5025;48.890;9.278;2024-01-30T04:35:43;100160.44;;;3.32;71.18
9969;BME280;5025;48.890;9.278;2024-01-30T04:38:08;100151.75;;;3.30;71.09
9969;BME280;5025;48.890;9.278;2024-01-30T04:40:33;100150.06;;;3.29;71.14
9969;BME280;5025;48.890;9.278;2024-01-30T04:42:59;100152.88;;;3.28;71.09
9969;BME280;5025;48.890;9.278;2024-01-30T04:45:24;100156.66;;;3.25;71.19
9969;BME280;5025;48.890;9.278;2024-01-30T04:47:49;100154.28;;;3.22;71.03
9969;BME280;5025;48.890;9.278;2024-01-30T04:50:14;100159.63;;;3.22;71.39
9969;BME280;5025;48.890;9.278;2024-01-30T04:52:40;100155.44;;;3.19;71.22
9969;BME280;5025;48.890;9.278;2024-01-30T04:55:05;100163.03;;;3.14;71.41
9969;BME280;5025;48.890;9.278;2024-01-30T04:57:31;100160.41;;;3.04;71.60
9969;BME280;5025;48.890;9.278;2024-01-30T04:59:58;100169.00;;;2.98;71.56
9969;BME280;5025;48.890;9.278;2024-01-30T05:02:23;100161.56;;;2.92;71.49
9969;BME280;5025;48.890;9.278;2024-01-30T05:04:49;100162.53;;;2.91;71.73
9969;BME280;5025;48.890;9.278;2024-01-30T05:07:14;100164.53;;;2.89;71.69
9969;BME280;5025;48.890;9.278;2024-01-30T05:09:39;100168.16;;;2.88;71.73
9969;BME280;5025;48.890;9.278;2024-01-30T05:12:04;100173.38;;;2.90;71.80
9969;BME280;5025;48.890;9.278;2024-01-30T05:14:30;100174.22;;;2.90;71.76
9969;BME280;5025;48.890;9.278;2024-01-30T05:16:55;100173.22;;;2.91;71.96
9969;BME280;5025;48.890;9.278;2024-01-30T05:19:21;100169.56;;;2.92;71.89
9969;BME280;5025;48.890;9.278;2024-01-30T05:21:48;100178.56;;;2.91;71.84
9969;BME280;5025;48.890;9.278;2024-01-30T05:24:13;100178.56;;;2.91;71.83
9969;BME280;5025;48.890;9.278;2024-01-30T05:26:38;100173.50;;;2.88;71.81
9969;BME280;5025;48.890;9.278;2024-01-30T05:29:05;100180.00;;;2.85;72.06
9969;BME280;5025;48.890;9.278;2024-01-30T05:31:30;100170.16;;;2.86;72.06
9969;BME280;5025;48.890;9.278;2024-01-30T05:33:55;100173.50;;;2.88;72.04
9969;BME280;5025;48.890;9.278;2024-01-30T05:36:20;100172.81;;;2.86;72.20
9969;BME280;5025;48.890;9.278;2024-01-30T05:38:46;100177.19;;;2.87;72.16
9969;BME280;5025;48.890;9.278;2024-01-30T05:41:12;100181.66;;;2.86;72.23
9969;BME280;5025;48.890;9.278;2024-01-30T05:43:37;100183.22;;;2.89;72.06
9969;BME280;5025;48.890;9.278;2024-01-30T05:46:02;100194.72;;;2.90;72.37
9969;BME280;5025;48.890;9.278;2024-01-30T05:48:27;100181.22;;;2.91;72.42
9969;BME280;5025;48.890;9.278;2024-01-30T05:50:53;100185.59;;;2.92;72.34
9969;BME280;5025;48.890;9.278;2024-01-30T05:53:18;100178.56;;;2.91;72.51
9969;BME280;5025;48.890;9.278;2024-01-30T05:55:43;100185.44;;;2.94;72.51
9969;BME280;5025;48.890;9.278;2024-01-30T05:58:08;100192.31;;;2.96;72.58
9969;BME280;5025;48.890;9.278;2024-01-30T06:00:35;100190.47;;;2.97;72.43
9969;BME280;5025;48.890;9.278;2024-01-30T06:03:00;100180.78;;;2.96;72.61
9969;BME280;5025;48.890;9.278;2024-01-30T06:05:25;100190.63;;;2.95;72.88
9969;BME280;5025;48.890;9.278;2024-01-30T06:07:50;100189.66;;;2.96;72.75
9969;BME280;5025;48.890;9.278;2024-01-30T06:10:16;100192.31;;;2.96;72.62
9969;BME280;5025;48.890;9.278;2024-01-30T06:12:41;100190.63;;;2.95;72.78
9969;BME280;5025;48.890;9.278;2024-01-30T06:15:07;100191.75;;;2.93;72.80
9969;BME280;5025;48.890;9.278;2024-01-30T06:17:32;100193.44;;;2.94;72.70
9969;BME280;5025;48.890;9.278;2024-01-30T06:19:57;100187.28;;;2.93;72.77
9969;BME280;5025;48.890;9.278;2024-01-30T06:22:23;100192.63;;;2.93;73.06
9969;BME280;5025;48.890;9.278;2024-01-30T06:24:48;100181.94;;;2.93;72.90
9969;BME280;5025;48.890;9.278;2024-01-30T06:27:14;100188.94;;;2.94;73.07
9969;BME280;5025;48.890;9.278;2024-01-30T06:29:40;100187.28;;;2.93;73.01
9969;BME280;5025;48.890;9.278;2024-01-30T06:32:06;100184.59;;;2.93;73.13
9969;BME280;5025;48.890;9.278;2024-01-30T06:34:34;100185.59;;;2.92;73.22
9969;BME280;5025;48.890;9.278;2024-01-30T06:36:59;100187.56;;;2.90;73.22
9969;BME280;5025;48.890;9.278;2024-01-30T06:39:25;100195.72;;;2.89;73.17
9969;BME280;5025;48.890;9.278;2024-01-30T06:41:51;100195.84;;;2.87;73.16
9969;BME280;5025;48.890;9.278;2024-01-30T06:44:16;100197.81;;;2.85;73.33
9969;BME280;5025;48.890;9.278;2024-01-30T06:46:41;100196.84;;;2.86;73.48
9969;BME280;5025;48.890;9.278;2024-01-30T06:49:06;100196.84;;;2.86;73.45
9969;BME280;5025;48.890;9.278;2024-01-30T06:51:32;100193.19;;;2.87;73.42
9969;BME280;5025;48.890;9.278;2024-01-30T06:53:57;100201.19;;;2.87;73.41
9969;BME280;5025;48.890;9.278;2024-01-30T06:56:22;100195.00;;;2.86;73.46
9969;BME280;5025;48.890;9.278;2024-01-30T06:58:48;100198.53;;;2.87;73.78
9969;BME280;5025;48.890;9.278;2024-01-30T07:01:14;100200.34;;;2.86;73.62
9969;BME280;5025;48.890;9.278;2024-01-30T07:03:39;100204.84;;;2.86;73.49
9969;BME280;5025;48.890;9.278;2024-01-30T07:06:04;100205.97;;;2.83;73.62
9969;BME280;5025;48.890;9.278;2024-01-30T07:08:30;100209.50;;;2.84;73.37
9969;BME280;5025;48.890;9.278;2024-01-30T07:10:55;100209.78;;;2.81;73.73
9969;BME280;5025;48.890;9.278;2024-01-30T07:13:21;100209.19;;;2.77;73.78
9969;BME280;5025;48.890;9.278;2024-01-30T07:15:46;100220.72;;;2.78;73.78
9969;BME280;5025;48.890;9.278;2024-01-30T07:18:11;100211.03;;;2.77;73.59
9969;BME280;5025;48.890;9.278;2024-01-30T07:20:38;100213.69;;;2.77;73.80
9969;BME280;5025;48.890;9.278;2024-01-30T07:23:07;100211.19;;;2.75;73.98
9969;BME280;5025;48.890;9.278;2024-01-30T07:25:33;100220.72;;;2.78;73.86
9969;BME280;5025;48.890;9.278;2024-01-30T07:28:01;100220.72;;;2.78;74.07
9969;BME280;5025;48.890;9.278;2024-01-30T07:30:26;100225.06;;;2.79;74.10
9969;BME280;5025;48.890;9.278;2024-01-30T07:32:52;100225.78;;;2.81;73.82
9969;BME280;5025;48.890;9.278;2024-01-30T07:35:17;100217.63;;;2.82;74.02
9969;BME280;5025;48.890;9.278;2024-01-30T07:37:42;100226.31;;;2.84;74.17
9969;BME280;5025;48.890;9.278;2024-01-30T07:40:08;100221.81;;;2.85;74.07
9969;BME280;5025;48.890;9.278;2024-01-30T07:42:33;100219.88;;;2.87;74.20
9969;BME280;5025;48.890;9.278;2024-01-30T07:44:59;100209.75;;;2.91;74.31
9969;BME280;5025;48.890;9.278;2024-01-30T07:47:25;100210.28;;;2.94;74.29
9969;BME280;5025;48.890;9.278;2024-01-30T07:49:50;100204.66;;;2.97;74.30
9969;BME280;5025;48.890;9.278;2024-01-30T07:52:16;100213.25;;;3.01;74.30
9969;BME280;5025;48.890;9.278;2024-01-30T07:54:41;100217.72;;;3.00;74.27
9969;BME280;5025;48.890;9.278;2024-01-30T07:57:07;100222.66;;;2.95;74.30
9969;BME280;5025;48.890;9.278;2024-01-30T07:59:32;100215.63;;;2.94;74.52
9969;BME280;5025;48.890;9.278;2024-01-30T08:01:57;100221.25;;;3.01;74.51
9969;BME280;5025;48.890;9.278;2024-01-30T08:04:23;100222.91;;;3.02;74.58
9969;BME280;5025;48.890;9.278;2024-01-30T08:06:48;100222.75;;;3.03;74.56
9969;BME280;5025;48.890;9.278;2024-01-30T08:09:14;100217.13;;;3.07;74.70
9969;BME280;5025;48.890;9.278;2024-01-30T08:11:39;100222.34;;;3.08;74.54
9969;BME280;5025;48.890;9.278;2024-01-30T08:14:04;100214.91;;;3.12;74.53
9969;BME280;5025;48.890;9.278;2024-01-30T08:16:30;100213.75;;;3.14;74.61
9969;BME280;5025;48.890;9.278;2024-01-30T08:18:55;100222.75;;;3.13;74.51
9969;BME280;5025;48.890;9.278;2024-01-30T08:21:22;100213.06;;;3.12;74.70
9969;BME280;5025;48.890;9.278;2024-01-30T08:23:47;100216.16;;;3.08;74.73
9969;BME280;5025;48.890;9.278;2024-01-30T08:26:13;100225.44;;;3.03;74.83
9969;BME280;5025;48.890;9.278;2024-01-30T08:28:38;100225.44;;;3.03;74.89
9969;BME280;5025;48.890;9.278;2024-01-30T08:31:03;100221.50;;;3.08;74.88
9969;BME280;5025;48.890;9.278;2024-01-30T08:33:29;100216.41;;;3.14;74.97
9969;BME280;5025;48.890;9.278;2024-01-30T08:35:54;100210.34;;;3.22;74.89
9969;BME280;5025;48.890;9.278;2024-01-30T08:38:19;100215.81;;;3.30;74.84
9969;BME280;5025;48.890;9.278;2024-01-30T08:40:44;100215.91;;;3.38;75.04
9969;BME280;5025;48.890;9.278;2024-01-30T08:43:10;100220.22;;;3.49;74.82
9969;BME280;5025;48.890;9.278;2024-01-30T08:45:35;100222.47;;;3.54;74.73
9969;BME280;5025;48.890;9.278;2024-01-30T08:48:00;100224.84;;;3.57;74.76
9969;BME280;5025;48.890;9.278;2024-01-30T08:50:25;100228.91;;;3.61;74.70
9969;BME280;5025;48.890;9.278;2024-01-30T08:52:51;100221.56;;;3.63;74.78
9969;BME280;5025;48.890;9.278;2024-01-30T08:55:16;100227.16;;;3.70;75.19
9969;BME280;5025;48.890;9.278;2024-01-30T08:57:41;100211.38;;;3.76;74.91
9969;BME280;5025;48.890;9.278;2024-01-30T09:00:07;100215.53;;;3.89;74.75
9969;BME280;5025;48.890;9.278;2024-01-30T09:02:34;100218.59;;;3.94;74.75
9969;BME280;5025;48.890;9.278;2024-01-30T09:04:59;100224.00;;;4.02;74.74
9969;BME280;5025;48.890;9.278;2024-01-30T09:07:24;100231.72;;;4.05;74.96
9969;BME280;5025;48.890;9.278;2024-01-30T09:09:50;100217.38;;;4.06;74.95
9969;BME280;5025;48.890;9.278;2024-01-30T09:12:15;100221.56;;;4.09;74.75
9969;BME280;5025;48.890;9.278;2024-01-30T09:14:40;100225.78;;;4.11;74.88
9969;BME280;5025;48.890;9.278;2024-01-30T09:17:06;100235.78;;;4.09;75.01
9969;BME280;5025;48.890;9.278;2024-01-30T09:19:32;100235.66;;;4.11;75.31
9969;BME280;5025;48.890;9.278;2024-01-30T09:21:57;100241.53;;;4.15;75.24
9969;BME280;5025;48.890;9.278;2024-01-30T09:24:22;100237.56;;;4.19;75.14
9969;BME280;5025;48.890;9.278;2024-01-30T09:26:47;100242.59;;;4.22;74.98
9969;BME280;5025;48.890;9.278;2024-01-30T09:29:13;100237.94;;;4.24;75.12
9969;BME280;5025;48.890;9.278;2024-01-30T09:31:38;100242.00;;;4.28;75.11
9969;BME280;5025;48.890;9.278;2024-01-30T09:34:03;100239.84;;;4.31;74.97
9969;BME280;5025;48.890;9.278;2024-01-30T09:36:28;100237.72;;;4.35;75.03
9969;BME280;5025;48.890;9.278;2024-01-30T09:38:54;100233.75;;;4.39;74.91
9969;BME280;5025;48.890;9.278;2024-01-30T09:41:19;100239.88;;;4.49;74.92
9969;BME280;5025;48.890;9.278;2024-01-30T09:43:48;100238.25;;;4.57;74.88
9969;BME280;5025;48.890;9.278;2024-01-30T09:46:17;100251.72;;;4.65;74.95
9969;BME280;5025;48.890;9.278;2024-01-30T09:48:46;100242.75;;;4.74;74.94
9969;BME280;5025;48.890;9.278;2024-01-30T09:51:12;100234.09;;;4.80;74.94
9969;BME280;5025;48.890;9.278;2024-01-30T09:53:40;100237.50;;;4.91;74.75
9969;BME280;5025;48.890;9.278;2024-01-30T09:56:05;100242.94;;;4.99;74.72
9969;BME280;5025;48.890;9.278;2024-01-30T09:58:31;100238.78;;;5.05;74.61
9969;BME280;5025;48.890;9.278;2024-01-30T10:00:56;100245.50;;;5.09;74.63
9969;BME280;5025;48.890;9.278;2024-01-30T10:03:22;100241.69;;;5.11;74.76
9969;BME280;5025;48.890;9.278;2024-01-30T10:05:54;100243.91;;;5.16;74.62
9969;BME280;5025;48.890;9.278;2024-01-30T10:08:20;100247.41;;;5.16;74.69
9969;BME280;5025;48.890;9.278;2024-01-30T10:10:47;100237.53;;;5.17;74.67
9969;BME280;5025;48.890;9.278;2024-01-30T10:13:13;100243.25;;;5.22;74.70
9969;BME280;5025;48.890;9.278;2024-01-30T10:15:38;100236.25;;;5.29;74.49
9969;BME280;5025;48.890;9.278;2024-01-30T10:18:04;100233.63;;;5.37;74.58
9969;BME280;5025;48.890;9.278;2024-01-30T10:20:31;100227.78;;;5.42;74.46
9969;BME280;5025;48.890;9.278;2024-01-30T10:22:57;100232.19;;;5.51;74.51
9969;BME280;5025;48.890;9.278;2024-01-30T10:25:23;100229.25;;;5.63;74.27
9969;BME280;5025;48.890;9.278;2024-01-30T10:27:52;100226.25;;;5.66;74.23
9969;BME280;5025;48.890;9.278;2024-01-30T10:30:19;100222.22;;;5.70;74.16
9969;BME280;5025;48.890;9.278;2024-01-30T10:32:44;100226.25;;;5.74;74.03
9969;BME280;5025;48.890;9.278;2024-01-30T10:35:09;100227.78;;;5.77;74.03
9969;BME280;5025;48.890;9.278;2024-01-30T10:37:35;100220.91;;;5.82;74.05
9969;BME280;5025;48.890;9.278;2024-01-30T10:40:03;100225.63;;;5.88;73.80
9969;BME280;5025;48.890;9.278;2024-01-30T10:42:31;100221.63;;;5.92;73.65
9969;BME280;5025;48.890;9.278;2024-01-30T10:45:10;100215.94;;;5.96;73.55
9969;BME280;5025;48.890;9.278;2024-01-30T10:47:49;100211.97;;;6.00;73.47
9969;BME280;5025;48.890;9.278;2024-01-30T10:50:15;100209.63;;;6.05;73.60
9969;BME280;5025;48.890;9.278;2024-01-30T10:52:41;100201.91;;;6.10;73.64
9969;BME280;5025;48.890;9.278;2024-01-30T10:55:07;100208.66;;;6.14;73.54
9969;BME280;5025;48.890;9.278;2024-01-30T10:57:37;100205.63;;;6.17;73.55
9969;BME280;5025;48.890;9.278;2024-01-30T11:00:05;100209.84;;;6.20;73.42
9969;BME280;5025;48.890;9.278;2024-01-30T11:02:35;100205.97;;;6.22;73.40
9969;BME280;5025;48.890;9.278;2024-01-30T11:05:01;100202.97;;;6.25;73.57
9969;BME280;5025;48.890;9.278;2024-01-30T11:07:29;100202.63;;;6.28;73.46
9969;BME280;5025;48.890;9.278;2024-01-30T11:12:26;100204.81;;;6.33;73.76
9969;BME280;5025;48.890;9.278;2024-01-30T11:15:08;100195.44;;;6.37;73.31
9969;BME280;5025;48.890;9.278;2024-01-30T11:20:25;100195.94;;;6.41;73.22
9969;BME280;5025;48.890;9.278;2024-01-30T11:22:54;100197.63;;;6.42;73.10
9969;BME280;5025;48.890;9.278;2024-01-30T11:25:21;100200.47;;;6.49;73.07
9969;BME280;5025;48.890;9.278;2024-01-30T11:27:49;100197.59;;;6.50;73.00
9969;BME280;5025;48.890;9.278;2024-01-30T11:33:00;100196.78;;;6.58;72.80
9969;BME280;5025;48.890;9.278;2024-01-30T11:35:26;100190.25;;;6.60;72.84
9969;BME280;5025;48.890;9.278;2024-01-30T11:37:52;100185.53;;;6.62;72.77
9969;BME280;5025;48.890;9.278;2024-01-30T11:40:17;100184.19;;;6.67;73.00
9969;BME280;5025;48.890;9.278;2024-01-30T11:42:44;100184.53;;;6.72;72.56
9969;BME280;5025;48.890;9.278;2024-01-30T11:45:09;100180.50;;;6.76;72.62
9969;BME280;5025;48.890;9.278;2024-01-30T11:47:36;100180.00;;;6.80;72.71
9969;BME280;5025;48.890;9.278;2024-01-30T11:50:02;100169.56;;;6.86;72.54
9969;BME280;5025;48.890;9.278;2024-01-30T11:52:28;100177.13;;;6.90;72.32
9969;BME280;5025;48.890;9.278;2024-01-30T11:54:54;100170.22;;;6.96;72.38
9969;BME280;5025;48.890;9.278;2024-01-30T11:57:19;100169.38;;;7.04;72.13
9969;BME280;5025;48.890;9.278;2024-01-30T11:59:44;100165.16;;;7.09;72.15
9969;BME280;5025;48.890;9.278;2024-01-30T12:02:15;100159.94;;;7.16;72.18
9969;BME280;5025;48.890;9.278;2024-01-30T12:04:40;100165.81;;;7.20;72.07
9969;BME280;5025;48.890;9.278;2024-01-30T12:07:05;100152.84;;;7.23;72.09
9969;BME280;5025;48.890;9.278;2024-01-30T12:09:31;100152.34;;;7.28;71.99
9969;BME280;5025;48.890;9.278;2024-01-30T12:11:57;100151.16;;;7.30;72.01
9969;BME280;5025;48.890;9.278;2024-01-30T12:14:22;100151.47;;;7.35;72.07
9969;BME280;5025;48.890;9.278;2024-01-30T12:16:50;100142.41;;;7.36;72.13
9969;BME280;5025;48.890;9.278;2024-01-30T12:19:23;100151.81;;;7.41;72.31
9969;BME280;5025;48.890;9.278;2024-01-30T12:21:54;100148.59;;;7.45;72.17
9969;BME280;5025;48.890;9.278;2024-01-30T12:24:19;100144.69;;;7.48;72.30
9969;BME280;5025;48.890;9.278;2024-01-30T12:26:45;100134.44;;;7.51;72.22
9969;BME280;5025;48.890;9.278;2024-01-30T12:29:10;100129.56;;;7.55;72.05
9969;BME280;5025;48.890;9.278;2024-01-30T12:31:35;100132.06;;;7.57;71.95
9969;BME280;5025;48.890;9.278;2024-01-30T12:34:01;100136.09;;;7.61;72.20
9969;BME280;5025;48.890;9.278;2024-01-30T12:36:26;100138.94;;;7.59;72.09
9969;BME280;5025;48.890;9.278;2024-01-30T12:38:51;100125.81;;;7.64;72.10
9969;BME280;5025;48.890;9.278;2024-01-30T12:41:17;100127.59;;;7.72;72.03
9969;BME280;5025;48.890;9.278;2024-01-30T12:43:42;100135.50;;;7.74;71.91
9969;BME280;5025;48.890;9.278;2024-01-30T12:46:08;100131.09;;;7.81;72.11
9969;BME280;5025;48.890;9.278;2024-01-30T12:48:33;100130.38;;;7.87;71.61
9969;BME280;5025;48.890;9.278;2024-01-30T12:50:59;100138.28;;;7.88;71.57
9969;BME280;5025;48.890;9.278;2024-01-30T12:53:24;100130.69;;;7.92;71.76
9969;BME280;5025;48.890;9.278;2024-01-30T12:55:49;100136.00;;;8.00;71.65
9969;BME280;5025;48.890;9.278;2024-01-30T12:58:15;100136.63;;;8.11;71.46
9969;BME280;5025;48.890;9.278;2024-01-30T13:00:41;100133.66;;;8.20;71.10
9969;BME280;5025;48.890;9.278;2024-01-30T13:03:08;100135.56;;;8.35;70.92
9969;BME280;5025;48.890;9.278;2024-01-30T13:05:33;100141.88;;;8.50;70.48
9969;BME280;5025;48.890;9.278;2024-01-30T13:07:58;100135.16;;;8.69;70.58
9969;BME280;5025;48.890;9.278;2024-01-30T13:10:24;100129.50;;;8.94;70.13
9969;BME280;5025;48.890;9.278;2024-01-30T13:12:49;100128.19;;;9.20;69.55
9969;BME280;5025;48.890;9.278;2024-01-30T13:15:14;100132.34;;;9.37;69.01
9969;BME280;5025;48.890;9.278;2024-01-30T13:17:40;100130.41;;;9.46;68.94
9969;BME280;5025;48.890;9.278;2024-01-30T13:20:07;100123.06;;;9.55;68.75
9969;BME280;5025;48.890;9.278;2024-01-30T13:22:33;100122.69;;;9.58;68.46